createdAt,value
2023-04-10T00:01:36.836Z,80.74
2023-04-10T00:04:05.477Z,80.74
2023-04-10T00:06:34.559Z,80.85
2023-04-10T00:09:02.294Z,80.76
2023-04-10T00:11:30.176Z,80.88
2023-04-10T00:13:57.427Z,80.87
2023-04-10T00:16:25.109Z,80.96
2023-04-10T00:18:52.425Z,81.04
2023-04-10T00:21:19.593Z,81.06
2023-04-10T00:23:46.991Z,81.05
2023-04-10T00:26:14.610Z,80.98
2023-04-10T00:28:41.761Z,81.17
2023-04-10T00:31:09.308Z,81.27
2023-04-10T00:33:36.957Z,81.24
2023-04-10T00:36:04.441Z,81.43
2023-04-10T00:38:32.309Z,81.54
2023-04-10T00:40:59.515Z,81.54
2023-04-10T00:43:26.798Z,81.75
2023-04-10T00:45:54.449Z,81.70
2023-04-10T00:48:21.596Z,81.70
2023-04-10T00:50:48.760Z,81.73
2023-04-10T00:53:17.127Z,81.64
2023-04-10T00:55:45.327Z,81.64
2023-04-10T00:58:14.823Z,81.67
2023-04-10T01:03:22.398Z,81.60
2023-04-10T01:05:57.051Z,81.75
2023-04-10T01:08:37.953Z,81.72
2023-04-10T01:11:14.205Z,81.86
2023-04-10T01:13:41.157Z,82.02
2023-04-10T01:16:25.920Z,82.23
2023-04-10T01:19:45.370Z,82.20
2023-04-10T01:22:17.126Z,82.17
2023-04-10T01:25:10.803Z,82.05
2023-04-10T01:28:00.375Z,82.20
2023-04-10T01:30:29.341Z,82.39
2023-04-10T01:33:00.073Z,82.30
2023-04-10T01:35:30.064Z,82.41
2023-04-10T01:38:00.213Z,82.08
2023-04-10T01:40:29.998Z,82.23
2023-04-10T01:42:59.694Z,82.16
2023-04-10T01:45:32.159Z,82.11
2023-04-10T01:47:59.954Z,82.04
2023-04-10T01:50:29.645Z,82.26
2023-04-10T01:52:57.967Z,82.17
2023-04-10T01:55:26.223Z,82.21
2023-04-10T01:57:55.234Z,82.18
2023-04-10T02:00:23.297Z,82.29
2023-04-10T02:02:51.421Z,82.27
2023-04-10T02:05:19.424Z,82.36
2023-04-10T02:08:06.282Z,82.27
2023-04-10T02:10:43.768Z,82.30
2023-04-10T02:13:13.924Z,82.36
2023-04-10T02:15:44.987Z,82.34
2023-04-10T02:18:16.265Z,82.49
2023-04-10T02:20:44.543Z,82.42
2023-04-10T02:23:12.469Z,82.61
2023-04-10T02:25:39.793Z,82.56
2023-04-10T02:28:08.419Z,82.54
2023-04-10T02:30:36.681Z,82.64
2023-04-10T02:33:03.885Z,82.78
2023-04-10T02:35:31.394Z,82.81
2023-04-10T02:37:58.670Z,82.82
2023-04-10T02:40:25.923Z,82.80
2023-04-10T02:42:53.562Z,82.74
2023-04-10T02:45:20.909Z,82.68
2023-04-10T02:47:48.146Z,82.63
2023-04-10T02:50:15.424Z,82.88
2023-04-10T02:52:42.850Z,82.88
2023-04-10T02:55:10.899Z,82.85
2023-04-10T02:57:38.368Z,82.87
2023-04-10T03:00:06.551Z,83.13
2023-04-10T03:02:34.296Z,83.04
2023-04-10T03:05:02.983Z,83.12
2023-04-10T03:07:30.518Z,83.19
2023-04-10T03:09:57.728Z,83.19
2023-04-10T03:12:25.408Z,83.11
2023-04-10T03:14:53.353Z,83.27
2023-04-10T03:17:20.705Z,83.18
2023-04-10T03:19:47.915Z,83.21
2023-04-10T03:22:15.374Z,83.30
2023-04-10T03:24:42.484Z,83.32
2023-04-10T03:27:09.754Z,83.22
2023-04-10T03:29:37.647Z,83.40
2023-04-10T03:32:04.966Z,83.55
2023-04-10T03:34:32.200Z,83.57
2023-04-10T03:36:59.754Z,83.69
2023-04-10T03:39:27.089Z,83.66
2023-04-10T03:41:54.290Z,83.62
2023-04-10T03:44:23.407Z,83.50
2023-04-10T03:46:51.012Z,83.54
2023-04-10T03:49:18.335Z,83.64
2023-04-10T03:51:45.972Z,83.76
2023-04-10T03:54:13.231Z,83.84
2023-04-10T03:56:40.513Z,83.84
2023-04-10T03:59:07.578Z,83.78
2023-04-10T04:01:35.256Z,83.84
2023-04-10T04:04:02.733Z,83.80
2023-04-10T04:06:30.637Z,83.87
2023-04-10T04:08:58.284Z,83.90
2023-04-10T04:11:25.455Z,83.98
2023-04-10T04:13:53.457Z,83.89
2023-04-10T04:16:21.493Z,83.93
2023-04-10T04:18:48.747Z,83.89
2023-04-10T04:21:17.064Z,83.97
2023-04-10T04:23:44.909Z,83.95
2023-04-10T04:26:12.191Z,84.11
2023-04-10T04:28:39.858Z,84.11
2023-04-10T04:31:09.315Z,84.12
2023-04-10T04:33:36.562Z,84.13
2023-04-10T04:36:04.541Z,84.15
2023-04-10T04:38:31.985Z,84.06
2023-04-10T04:40:59.256Z,84.22
2023-04-10T04:43:27.388Z,84.24
2023-04-10T04:45:54.981Z,84.34
2023-04-10T04:48:22.287Z,84.36
2023-04-10T04:50:49.824Z,84.42
2023-04-10T04:53:17.420Z,84.39
2023-04-10T04:55:44.680Z,84.58
2023-04-10T04:58:12.257Z,84.56
2023-04-10T05:00:40.150Z,85.19
2023-04-10T05:03:07.435Z,84.75
2023-04-10T05:05:35.239Z,84.97
2023-04-10T05:08:02.908Z,84.79
2023-04-10T05:10:30.123Z,84.87
2023-04-10T05:12:57.459Z,84.87
2023-04-10T05:15:24.800Z,84.95
2023-04-10T05:17:53.554Z,85.01
2023-04-10T05:20:22.633Z,85.07
2023-04-10T05:22:51.768Z,85.09
2023-04-10T05:25:19.232Z,85.07
2023-04-10T05:27:46.831Z,85.05
2023-04-10T05:30:14.226Z,85.19
2023-04-10T05:32:41.549Z,85.14
2023-04-10T05:35:09.507Z,85.27
2023-04-10T05:37:37.101Z,85.32
2023-04-10T05:40:04.873Z,85.23
2023-04-10T05:42:32.520Z,85.23
2023-04-10T05:45:00.217Z,85.32
2023-04-10T05:47:27.439Z,85.23
2023-04-10T05:49:55.060Z,85.29
2023-04-10T05:52:22.497Z,85.17
2023-04-10T05:54:49.821Z,85.25
2023-04-10T05:57:17.398Z,85.38
2023-04-10T05:59:45.045Z,85.47
2023-04-10T06:02:12.576Z,85.36
2023-04-10T06:04:39.944Z,85.41
2023-04-10T06:07:07.309Z,85.30
2023-04-10T06:09:34.451Z,85.35
2023-04-10T06:12:01.813Z,85.34
2023-04-10T06:14:29.091Z,85.49
2023-04-10T06:16:56.991Z,85.50
2023-04-10T06:19:24.667Z,85.52
2023-04-10T06:21:53.921Z,85.48
2023-04-10T06:24:22.228Z,85.54
2023-04-10T06:26:50.000Z,85.32
2023-04-10T06:29:17.352Z,85.41
2023-04-10T06:31:45.094Z,85.55
2023-04-10T06:34:12.659Z,85.49
2023-04-10T06:36:40.086Z,85.33
2023-04-10T06:39:07.525Z,85.43
2023-04-10T06:41:34.978Z,85.41
2023-04-10T06:44:03.393Z,85.48
2023-04-10T06:46:31.069Z,85.58
2023-04-10T06:48:58.959Z,85.36
2023-04-10T06:51:26.619Z,85.42
2023-04-10T06:53:54.320Z,85.44
2023-04-10T06:56:22.173Z,85.37
2023-04-10T06:58:49.534Z,85.39
2023-04-10T07:01:18.232Z,85.34
2023-04-10T07:03:46.116Z,85.36
2023-04-10T07:06:13.823Z,85.30
2023-04-10T07:08:41.810Z,85.22
2023-04-10T07:11:09.428Z,85.25
2023-04-10T07:13:39.296Z,85.27
2023-04-10T07:16:08.847Z,85.25
2023-04-10T07:18:39.224Z,85.43
2023-04-10T07:21:13.464Z,85.41
2023-04-10T07:23:41.496Z,85.51
2023-04-10T07:26:08.769Z,85.30
2023-04-10T07:28:37.004Z,85.26
2023-04-10T07:31:04.949Z,85.51
2023-04-10T07:33:32.405Z,85.35
2023-04-10T07:36:00.190Z,85.50
2023-04-10T07:38:28.207Z,85.50
2023-04-10T07:41:02.012Z,85.30
2023-04-10T07:43:29.814Z,85.38
2023-04-10T07:45:57.589Z,85.58
2023-04-10T07:48:25.526Z,85.26
2023-04-10T07:50:54.080Z,85.53
2023-04-10T07:53:21.334Z,85.66
2023-04-10T07:55:50.707Z,85.47
2023-04-10T07:58:18.401Z,85.08
2023-04-10T08:00:46.009Z,85.12
2023-04-10T08:03:15.439Z,85.22
2023-04-10T08:05:43.195Z,85.10
2023-04-10T08:08:10.656Z,84.90
2023-04-10T08:10:39.666Z,85.04
2023-04-10T08:13:07.453Z,84.89
2023-04-10T08:15:35.009Z,84.74
2023-04-10T08:18:02.408Z,85.05
2023-04-10T08:20:30.273Z,84.81
2023-04-10T08:25:45.373Z,84.92
2023-04-10T08:28:12.593Z,84.89
2023-04-10T08:30:40.015Z,84.88
2023-04-10T08:33:07.562Z,84.86
2023-04-10T08:35:35.024Z,84.69
2023-04-10T08:38:12.626Z,84.91
2023-04-10T08:40:42.168Z,84.77
2023-04-10T08:43:09.375Z,84.67
2023-04-10T08:45:36.810Z,84.42
2023-04-10T08:48:07.110Z,84.66
2023-04-10T08:50:37.462Z,84.50
2023-04-10T08:53:11.602Z,84.59
2023-04-10T08:55:40.906Z,84.62
2023-04-10T08:58:08.925Z,84.55
2023-04-10T09:00:39.219Z,84.62
2023-04-10T09:03:12.175Z,84.40
2023-04-10T09:05:39.680Z,84.42
2023-04-10T09:08:08.813Z,83.90
2023-04-10T09:10:36.139Z,83.74
2023-04-10T09:13:03.473Z,83.70
2023-04-10T09:15:30.942Z,83.34
2023-04-10T09:18:00.934Z,83.31
2023-04-10T09:20:31.627Z,83.44
2023-04-10T09:22:59.273Z,83.09
2023-04-10T09:25:36.146Z,83.07
2023-04-10T09:28:08.740Z,82.87
2023-04-10T09:30:37.337Z,82.82
2023-04-10T09:33:27.406Z,82.83
2023-04-10T09:35:58.369Z,82.53
2023-04-10T09:38:26.195Z,82.51
2023-04-10T09:40:54.421Z,82.40
2023-04-10T09:43:25.186Z,82.21
2023-04-10T09:45:53.614Z,81.86
2023-04-10T09:48:22.415Z,82.10
2023-04-10T09:50:50.050Z,81.74
2023-04-10T09:53:20.390Z,81.73
2023-04-10T09:55:49.689Z,81.52
2023-04-10T09:58:18.261Z,81.57
2023-04-10T10:00:47.524Z,81.88
2023-04-10T10:03:16.977Z,81.78
2023-04-10T10:05:51.408Z,81.77
2023-04-10T10:08:18.820Z,81.49
2023-04-10T10:10:55.421Z,81.05
2023-04-10T10:13:48.767Z,80.62
2023-04-10T10:16:28.092Z,79.96
2023-04-10T10:19:13.082Z,79.92
2023-04-10T10:21:43.393Z,80.00
2023-04-10T10:24:13.044Z,79.53
2023-04-10T10:26:40.961Z,79.41
2023-04-10T10:29:14.200Z,78.64
2023-04-10T10:31:42.449Z,77.13
2023-04-10T10:34:10.179Z,77.86
2023-04-10T10:36:38.686Z,78.19
2023-04-10T10:39:23.484Z,77.93
2023-04-10T10:42:02.723Z,77.88
2023-04-10T10:44:43.528Z,77.14
2023-04-10T10:47:25.435Z,75.85
2023-04-10T10:50:01.241Z,77.02
2023-04-10T10:52:50.312Z,77.07
2023-04-10T10:55:33.029Z,77.21
2023-04-10T10:58:05.903Z,77.15
2023-04-10T11:00:59.830Z,76.39
2023-04-10T11:03:31.091Z,76.27
2023-04-10T11:06:04.278Z,76.14
2023-04-10T11:08:35.006Z,75.59
2023-04-10T11:11:08.983Z,75.63
2023-04-10T11:13:39.192Z,75.27
2023-04-10T11:16:10.489Z,75.03
2023-04-10T11:18:49.618Z,75.09
2023-04-10T11:21:22.633Z,75.38
2023-04-10T11:23:56.710Z,73.26
2023-04-10T11:26:37.189Z,74.27
2023-04-10T11:29:20.510Z,72.89
2023-04-10T11:31:59.603Z,71.94
2023-04-10T11:34:28.320Z,72.10
2023-04-10T11:36:56.154Z,70.96
2023-04-10T11:39:23.465Z,70.64
2023-04-10T11:41:53.210Z,69.42
2023-04-10T11:44:32.360Z,69.51
2023-04-10T11:47:00.080Z,69.86
2023-04-10T11:49:37.544Z,68.43
2023-04-10T11:52:05.397Z,67.97
2023-04-10T11:54:33.030Z,68.55
2023-04-10T11:57:07.976Z,67.91
2023-04-10T11:59:35.881Z,67.65
2023-04-10T12:02:16.881Z,67.69
2023-04-10T12:04:45.325Z,67.63
2023-04-10T12:07:13.187Z,67.62
2023-04-10T12:09:41.157Z,66.47
2023-04-10T12:12:09.039Z,67.08
2023-04-10T12:14:42.738Z,66.92
2023-04-10T12:17:11.746Z,63.58
2023-04-10T12:19:40.998Z,65.20
2023-04-10T12:22:09.456Z,65.12
2023-04-10T12:24:51.224Z,64.57
2023-04-10T12:27:29.836Z,63.22
2023-04-10T12:29:59.302Z,61.69
2023-04-10T12:32:29.649Z,62.84
2023-04-10T12:34:58.253Z,63.26
2023-04-10T12:37:46.717Z,62.85
2023-04-10T12:40:15.328Z,62.05
2023-04-10T12:42:43.526Z,61.38
2023-04-10T12:45:14.293Z,59.04
2023-04-10T12:47:47.641Z,61.24
2023-04-10T12:50:16.900Z,61.42
2023-04-10T12:52:46.556Z,60.51
2023-04-10T12:55:18.723Z,58.20
2023-04-10T12:57:47.974Z,58.92
2023-04-10T13:00:17.785Z,59.04
2023-04-10T13:02:47.013Z,58.63
2023-04-10T13:05:15.411Z,58.52
2023-04-10T13:07:43.331Z,58.62
2023-04-10T13:10:10.861Z,58.99
2023-04-10T13:12:39.375Z,58.99
2023-04-10T13:15:08.283Z,59.40
2023-04-10T13:17:37.671Z,58.86
2023-04-10T13:20:05.764Z,58.21
2023-04-10T13:22:32.889Z,58.99
2023-04-10T13:25:00.235Z,58.88
2023-04-10T13:27:27.509Z,58.64
2023-04-10T13:29:56.043Z,57.80
2023-04-10T13:32:23.897Z,58.34
2023-04-10T13:34:51.287Z,57.69
2023-04-10T13:37:18.578Z,57.92
2023-04-10T13:39:46.023Z,57.39
2023-04-10T13:42:14.285Z,59.00
2023-04-10T13:44:44.343Z,57.31
2023-04-10T13:47:12.158Z,57.84
2023-04-10T13:49:39.767Z,58.07
2023-04-10T13:52:07.148Z,56.87
2023-04-10T13:54:34.926Z,56.94
2023-04-10T13:57:03.357Z,56.82
2023-04-10T13:59:31.154Z,56.65
2023-04-10T14:01:58.901Z,57.15
2023-04-10T14:04:26.170Z,57.51
2023-04-10T14:06:58.155Z,56.77
2023-04-10T14:09:25.568Z,56.53
2023-04-10T14:11:52.815Z,56.50
2023-04-10T14:14:20.009Z,55.58
2023-04-10T14:16:47.677Z,54.06
2023-04-10T14:19:14.899Z,53.88
2023-04-10T14:21:44.425Z,53.23
2023-04-10T14:24:12.364Z,53.02
2023-04-10T14:26:40.317Z,53.72
2023-04-10T14:29:09.154Z,52.52
2023-04-10T14:31:44.196Z,53.48
2023-04-10T14:34:22.871Z,54.00
2023-04-10T14:36:50.565Z,54.48
2023-04-10T14:39:17.857Z,54.83
2023-04-10T14:41:45.073Z,55.10
2023-04-10T14:44:12.710Z,55.03
2023-04-10T14:46:39.920Z,54.91
2023-04-10T14:49:07.153Z,55.22
2023-04-10T14:51:34.883Z,55.40
2023-04-10T14:54:04.775Z,55.77
2023-04-10T14:56:32.111Z,56.70
2023-04-10T14:59:00.155Z,57.39
2023-04-10T15:01:27.592Z,57.67
2023-04-10T15:03:55.164Z,58.09
2023-04-10T15:06:23.630Z,58.48
2023-04-10T15:08:51.348Z,58.93
2023-04-10T15:11:18.594Z,59.24
2023-04-10T15:13:47.939Z,59.41
2023-04-10T15:16:15.236Z,59.51
2023-04-10T15:18:42.452Z,59.86
2023-04-10T15:21:10.214Z,59.61
2023-04-10T15:23:37.497Z,60.03
2023-04-10T15:26:04.901Z,60.36
2023-04-10T15:28:32.895Z,60.68
2023-04-10T15:31:00.232Z,60.87
2023-04-10T15:33:27.518Z,61.27
2023-04-10T15:35:55.720Z,61.47
2023-04-10T15:38:26.615Z,61.60
2023-04-10T15:40:53.964Z,62.16
2023-04-10T15:43:21.892Z,62.24
2023-04-10T15:45:49.213Z,62.44
2023-04-10T15:48:16.764Z,62.64
2023-04-10T15:50:44.145Z,62.83
2023-04-10T15:53:11.401Z,63.01
2023-04-10T15:55:41.619Z,63.26
2023-04-10T15:58:08.887Z,63.30
2023-04-10T16:00:36.391Z,63.72
2023-04-10T16:03:03.969Z,64.13
2023-04-10T16:05:31.813Z,64.36
2023-04-10T16:07:59.105Z,64.40
2023-04-10T16:10:26.485Z,64.62
2023-04-10T16:12:54.379Z,64.55
2023-04-10T16:15:21.675Z,64.72
2023-04-10T16:17:49.103Z,64.74
2023-04-10T16:20:16.363Z,64.97
2023-04-10T16:22:43.664Z,65.05
2023-04-10T16:25:11.163Z,65.30
2023-04-10T16:27:38.910Z,65.39
2023-04-10T16:30:07.002Z,65.35
2023-04-10T16:32:34.874Z,65.61
2023-04-10T16:35:02.791Z,65.74
2023-04-10T16:37:30.123Z,65.95
2023-04-10T16:39:57.482Z,65.87
2023-04-10T16:42:24.851Z,66.21
2023-04-10T16:44:53.031Z,66.39
2023-04-10T16:47:20.415Z,66.36
2023-04-10T16:49:48.496Z,66.50
2023-04-10T16:52:15.841Z,66.49
2023-04-10T16:54:43.113Z,66.77
2023-04-10T16:57:11.119Z,66.67
2023-04-10T16:59:38.602Z,66.82
2023-04-10T17:02:05.961Z,67.05
2023-04-10T17:04:33.218Z,67.32
2023-04-10T17:07:00.977Z,67.31
2023-04-10T17:09:28.326Z,67.33
2023-04-10T17:11:56.525Z,67.42
2023-04-10T17:14:23.790Z,67.64
2023-04-10T17:16:51.146Z,67.94
2023-04-10T17:19:18.752Z,68.03
2023-04-10T17:21:46.558Z,68.07
2023-04-10T17:24:13.791Z,68.31
2023-04-10T17:26:41.986Z,68.40
2023-04-10T17:29:09.276Z,68.66
2023-04-10T17:31:36.811Z,68.83
2023-04-10T17:34:04.662Z,68.69
2023-04-10T17:36:33.075Z,68.80
2023-04-10T17:39:01.070Z,68.56
2023-04-10T17:41:28.574Z,68.82
2023-04-10T17:43:56.455Z,69.11
2023-04-10T17:46:24.008Z,69.11
2023-04-10T17:48:51.459Z,69.14
2023-04-10T17:51:19.269Z,69.31
2023-04-10T17:53:47.304Z,69.54
2023-04-10T17:56:22.494Z,69.36
2023-04-10T17:58:50.136Z,69.46
2023-04-10T18:01:27.081Z,69.41
2023-04-10T18:03:54.801Z,69.60
2023-04-10T18:06:22.420Z,69.96
2023-04-10T18:08:50.562Z,69.77
2023-04-10T18:11:17.907Z,69.76
2023-04-10T18:13:46.523Z,69.91
2023-04-10T18:16:13.841Z,70.03
2023-04-10T18:18:42.720Z,70.37
2023-04-10T18:21:14.004Z,70.40
2023-04-10T18:23:41.834Z,70.31
2023-04-10T18:26:09.263Z,70.39
2023-04-10T18:28:38.285Z,70.62
2023-04-10T18:31:06.077Z,70.87
2023-04-10T18:33:35.136Z,71.05
2023-04-10T18:36:03.867Z,71.51
2023-04-10T18:38:31.577Z,71.74
2023-04-10T18:40:58.820Z,72.06
2023-04-10T18:43:30.271Z,72.32
2023-04-10T18:45:59.151Z,72.71
2023-04-10T18:48:26.586Z,72.81
2023-04-10T18:50:54.413Z,72.70
2023-04-10T18:53:25.058Z,72.71
2023-04-10T18:55:54.733Z,72.81
2023-04-10T18:58:23.289Z,73.24
2023-04-10T19:00:51.430Z,73.46
2023-04-10T19:03:19.642Z,73.46
2023-04-10T19:05:48.873Z,73.48
2023-04-10T19:08:18.076Z,73.85
2023-04-10T19:10:46.234Z,73.99
2023-04-10T19:13:13.977Z,74.09
2023-04-10T19:15:43.565Z,73.89
2023-04-10T19:18:13.117Z,74.21
2023-04-10T19:20:52.274Z,74.05
2023-04-10T19:23:21.627Z,74.18
2023-04-10T19:25:54.990Z,74.00
2023-04-10T19:28:24.543Z,73.93
2023-04-10T19:30:53.067Z,73.86
2023-04-10T19:33:21.737Z,73.97
2023-04-10T19:35:51.559Z,73.90
2023-04-10T19:38:19.368Z,73.95
2023-04-10T19:40:48.094Z,73.80
2023-04-10T19:43:15.324Z,73.90
2023-04-10T19:45:43.172Z,73.76
2023-04-10T19:48:11.348Z,73.92
2023-04-10T19:50:38.881Z,73.69
2023-04-10T19:53:06.287Z,73.82
2023-04-10T19:55:35.416Z,73.85
2023-04-10T19:58:02.746Z,73.91
2023-04-10T20:00:30.668Z,73.74
2023-04-10T20:02:59.142Z,73.69
2023-04-10T20:05:27.127Z,73.67
2023-04-10T20:07:54.465Z,73.78
2023-04-10T20:10:22.324Z,73.82
2023-04-10T20:12:49.530Z,73.97
2023-04-10T20:15:16.910Z,74.33
2023-04-10T20:17:44.446Z,74.32
2023-04-10T20:20:13.628Z,74.43
2023-04-10T20:22:40.927Z,74.61
2023-04-10T20:25:09.243Z,74.59
2023-04-10T20:27:36.321Z,74.82
2023-04-10T20:30:03.861Z,74.93
2023-04-10T20:32:31.571Z,74.81
2023-04-10T20:34:59.264Z,74.94
2023-04-10T20:37:26.497Z,75.12
2023-04-10T20:39:53.836Z,74.88
2023-04-10T20:42:21.420Z,74.94
2023-04-10T20:44:48.779Z,74.94
2023-04-10T20:47:16.346Z,75.22
2023-04-10T20:49:43.890Z,75.33
2023-04-10T20:52:11.381Z,75.28
2023-04-10T20:54:39.379Z,75.35
2023-04-10T20:57:06.704Z,75.46
2023-04-10T20:59:36.459Z,75.49
2023-04-10T21:02:04.556Z,75.53
2023-04-10T21:04:33.400Z,75.63
2023-04-10T21:07:00.792Z,75.73
2023-04-10T21:09:28.299Z,75.79
2023-04-10T21:11:55.869Z,75.63
2023-04-10T21:14:23.072Z,75.46
2023-04-10T21:16:50.904Z,75.61
2023-04-10T21:19:18.613Z,75.56
2023-04-10T21:21:45.897Z,75.54
2023-04-10T21:24:13.133Z,75.45
2023-04-10T21:26:40.673Z,75.37
2023-04-10T21:29:07.906Z,75.44
2023-04-10T21:31:36.067Z,75.41
2023-04-10T21:34:03.992Z,75.65
2023-04-10T21:36:31.666Z,75.50
2023-04-10T21:38:58.875Z,75.43
2023-04-10T21:41:27.591Z,75.28
2023-04-10T21:43:56.956Z,75.15
2023-04-10T21:46:24.706Z,75.23
2023-04-10T21:48:52.158Z,75.25
2023-04-10T21:51:19.442Z,75.37
2023-04-10T21:53:47.034Z,75.53
2023-04-10T21:56:14.465Z,75.66
2023-04-10T21:58:41.808Z,75.65
2023-04-10T22:01:09.629Z,75.80
2023-04-10T22:03:37.322Z,75.58
2023-04-10T22:06:04.731Z,75.63
2023-04-10T22:08:32.142Z,75.48
2023-04-10T22:10:59.328Z,75.49
2023-04-10T22:13:30.712Z,75.47
2023-04-10T22:16:02.775Z,75.60
2023-04-10T22:18:30.604Z,75.43
2023-04-10T22:20:58.086Z,75.50
2023-04-10T22:23:25.645Z,75.44
2023-04-10T22:25:52.818Z,75.54
2023-04-10T22:28:20.047Z,75.41
2023-04-10T22:30:47.587Z,75.61
2023-04-10T22:33:15.983Z,75.71
2023-04-10T22:35:43.240Z,75.73
2023-04-10T22:38:10.828Z,75.76
2023-04-10T22:40:38.176Z,75.64
2023-04-10T22:43:05.406Z,75.47
2023-04-10T22:45:32.960Z,75.51
2023-04-10T22:48:00.372Z,75.48
2023-04-10T22:50:27.633Z,75.51
2023-04-10T22:52:55.078Z,75.73
2023-04-10T22:55:22.619Z,75.46
2023-04-10T22:57:50.000Z,75.38
2023-04-10T23:00:17.676Z,75.29
2023-04-10T23:02:48.364Z,75.50
2023-04-10T23:05:15.857Z,75.53
2023-04-10T23:07:43.636Z,75.35
2023-04-10T23:10:11.037Z,75.21
2023-04-10T23:12:38.230Z,75.25
2023-04-10T23:15:07.664Z,75.36
2023-04-10T23:17:35.013Z,75.34
2023-04-10T23:20:02.415Z,75.58
2023-04-10T23:22:30.703Z,76.07
2023-04-10T23:24:58.437Z,75.72
2023-04-10T23:27:25.717Z,75.70
2023-04-10T23:29:53.428Z,75.88
2023-04-10T23:32:20.644Z,75.88
2023-04-10T23:34:47.877Z,75.69
2023-04-10T23:37:15.133Z,76.18
2023-04-10T23:39:42.350Z,75.85
2023-04-10T23:42:09.614Z,75.89
2023-04-10T23:44:37.330Z,76.49
2023-04-10T23:47:04.662Z,76.33
2023-04-10T23:49:32.041Z,76.69
2023-04-10T23:51:59.358Z,76.52
2023-04-10T23:54:26.679Z,76.54
2023-04-10T23:56:53.796Z,76.43
2023-04-10T23:59:21.375Z,76.87
